Biwabik, Minnesota
Current Conditions -  °F | °C
As of 6:11 PM on Sunday 23 Nov 2014 (Local Time) from KEVM Reporting Station
Haze Haze  
Wind Chill:   Ceiling: 500
Heat Index:   Visibility: 2.5mi
Dew Point:   Wind: 0mph
Humidity: 100%   Direction: NA
Pressure: 29.38"   Gusts: NA
Location:  47.53°N, 92.34°W
Report Text: KEVM 240011Z AUTO 00000KT 2 1/2SM BR OVC005 01/01 A2938 RMK AO2
Loading
Personal Weather Stations






























Interactive Weather Map New forecast layout! Learn more

10-Day Weather Forecast

Advertisements
Track Severe Weather on mobile